Time;durP1;ratioP1;P1;durP2;ratioP2;P2;SDS_P1;SDS_P2;PMS_P1;PMS_P2;Temp;Humidity;BMP_temperature;BMP_pressure;BME280_temperature;BME280_humidity;BME280_pressure;Samples;Min_cycle;Max_cycle;Signal;HPM_P1;HPM_P2
2022/08/28 00:02:23;;;;;;;;;4.33;4.33;;;;;;;;5049056;28;8850;-77
2022/08/28 00:04:49;;;;;;;;;5.00;5.00;;;;;;;;5049724;28;11312;-75
2022/08/28 00:07:14;;;;;;;;;6.33;6.33;;;;;;;;5047277;28;11470;-76
2022/08/28 00:09:40;;;;;;;;;6.33;6.00;;;;;;;;5047489;28;13358;-76
2022/08/28 00:12:05;;;;;;;;;8.67;6.33;;;;;;;;5045245;28;12243;-75
2022/08/28 00:14:31;;;;;;;;;7.00;5.00;;;;;;;;5049576;28;11694;-73
2022/08/28 00:16:56;;;;;;;;;5.00;5.00;;;;;;;;5048827;28;11313;-75
2022/08/28 00:19:22;;;;;;;;;6.00;6.00;;;;;;;;5046004;28;8831;-74
2022/08/28 00:21:48;;;;;;;;;6.00;5.00;;;;;;;;5048421;28;8808;-74
2022/08/28 00:24:14;;;;;;;;;6.00;5.33;;;;;;;;5049655;28;9116;-73
2022/08/28 00:29:23;;;;;;;;;7.33;5.00;;;;;;;;5045846;28;8782;-74
2022/08/28 00:31:49;;;;;;;;;5.67;5.33;;;;;;;;5048204;28;9226;-75
2022/08/28 00:34:15;;;;;;;;;5.00;5.00;;;;;;;;5047377;28;11492;-74
2022/08/28 00:36:40;;;;;;;;;6.67;6.00;;;;;;;;5049738;28;10093;-74
2022/08/28 00:39:06;;;;;;;;;4.00;4.00;;;;;;;;5045640;28;12122;-73
2022/08/28 00:41:32;;;;;;;;;6.00;6.00;;;;;;;;5048968;28;10372;-73
2022/08/28 00:44:06;;;;;;;;;5.00;5.00;;;;;;;;5047316;28;9190;-74
2022/08/28 00:46:31;;;;;;;;;6.00;5.00;;;;;;;;5046801;28;9633;-76
2022/08/28 00:48:56;;;;;;;;;5.67;4.67;;;;;;;;5050140;28;10032;-76
2022/08/28 00:54:06;;;;;;;;;7.00;5.67;;;;;;;;5048594;28;11322;-74
2022/08/28 00:56:33;;;;;;;;;6.33;6.33;;;;;;;;5048816;28;12858;-75
2022/08/28 11:40:11;;;;;;;;;6.00;6.00;;;;;;;;5024717;27;1404304;-82
2022/08/28 11:42:37;;;;;;;;;6.00;6.00;;;;;;;;5031927;27;20867;-79
2022/08/28 11:45:03;;;;;;;;;8.00;6.00;;;;;;;;5030527;28;8870;-80
2022/08/28 11:47:34;;;;;;;;;5.50;5.50;;;;;;;;5032584;28;8811;-80
2022/08/28 11:50:17;;;;;;;;;7.00;7.00;;;;;;;;5032269;28;12747;-80
2022/08/28 11:52:52;;;;;;;;;7.25;6.00;;;;;;;;5117991;27;12806;-80
2022/08/28 11:55:32;;;;;;;;;8.75;8.75;;;;;;;;5030977;28;9983;-81
2022/08/28 11:58:16;;;;;;;;;8.00;6.50;;;;;;;;5032558;27;11519;-77
2022/08/28 12:00:50;;;;;;;;;5.25;5.25;;;;;;;;5031898;27;10425;-81
2022/08/28 12:03:36;;;;;;;;;5.50;5.50;;;;;;;;5032384;27;12045;-87
2022/08/28 12:06:02;;;;;;;;;5.75;5.75;;;;;;;;5029809;28;8808;-82
2022/08/28 12:08:46;;;;;;;;;6.75;6.75;;;;;;;;5031140;28;8881;-81
2022/08/28 12:11:30;;;;;;;;;8.75;7.00;;;;;;;;5032060;28;9022;-80
2022/08/28 12:13:56;;;;;;;;;5.00;5.00;;;;;;;;5028139;28;12794;-77
2022/08/28 12:16:21;;;;;;;;;7.33;7.00;;;;;;;;5032201;28;10255;-84
2022/08/28 12:18:46;;;;;;;;;7.33;6.67;;;;;;;;5034395;27;10328;-85
2022/08/28 12:21:15;;;;;;;;;7.00;6.00;;;;;;;;5034870;27;9047;-79
2022/08/28 12:23:40;;;;;;;;;6.75;6.50;;;;;;;;5032678;27;9649;-80
2022/08/28 12:26:05;;;;;;;;;5.33;5.33;;;;;;;;5031359;28;11471;-82
2022/08/28 12:28:36;;;;;;;;;6.00;6.00;;;;;;;;5034151;27;11823;-81
2022/08/28 12:31:04;;;;;;;;;5.00;5.00;;;;;;;;5031763;27;11384;-80
2022/08/28 12:33:49;;;;;;;;;5.75;5.75;;;;;;;;5031450;28;8887;-74
2022/08/28 12:36:15;;;;;;;;;5.00;5.00;;;;;;;;5032265;27;8834;-76
2022/08/28 12:38:47;;;;;;;;;5.00;5.00;;;;;;;;5082623;27;8833;-75
2022/08/28 12:41:13;;;;;;;;;6.00;6.00;;;;;;;;5137153;27;8805;-76
2022/08/28 12:43:42;;;;;;;;;5.00;5.00;;;;;;;;5135922;27;8789;-75
2022/08/28 12:46:09;;;;;;;;;6.00;6.00;;;;;;;;5136068;27;8991;-73
2022/08/28 12:48:49;;;;;;;;;6.00;6.00;;;;;;;;5136848;27;9581;-78
2022/08/28 12:51:17;;;;;;;;;6.75;5.75;;;;;;;;5123970;27;8762;-77
2022/08/28 12:53:44;;;;;;;;;6.75;6.00;;;;;;;;5123903;28;10355;-85
2022/08/28 12:56:11;;;;;;;;;5.50;5.50;;;;;;;;5103776;28;8808;-78
2022/08/28 12:58:38;;;;;;;;;6.25;6.00;;;;;;;;5120478;28;13051;-78
2022/08/28 13:01:22;;;;;;;;;8.50;8.50;;;;;;;;5112938;28;11911;-77
2022/08/28 13:03:49;;;;;;;;;6.50;6.25;;;;;;;;5102589;28;11409;-80
2022/08/28 13:06:20;;;;;;;;;7.00;7.00;;;;;;;;5103054;28;11426;-81
2022/08/28 13:08:47;;;;;;;;;6.25;6.00;;;;;;;;5102048;28;11526;-76
2022/08/28 13:11:17;;;;;;;;;7.75;6.50;;;;;;;;5102158;28;10870;-76
2022/08/28 13:13:47;;;;;;;;;8.75;7.00;;;;;;;;5102586;28;11358;-74
2022/08/28 13:16:32;;;;;;;;;12.50;11.75;;;;;;;;5083626;28;13417;-77
2022/08/28 13:19:04;;;;;;;;;10.25;8.00;;;;;;;;5082597;28;23286;-75
2022/08/28 13:21:31;;;;;;;;;7.00;7.00;;;;;;;;5101019;28;22775;-76
2022/08/28 13:23:57;;;;;;;;;7.50;7.00;;;;;;;;5100222;28;22435;-75
2022/08/28 13:26:22;;;;;;;;;7.75;7.00;;;;;;;;5101289;28;8895;-75
2022/08/28 13:28:48;;;;;;;;;5.00;5.00;;;;;;;;5101509;28;8890;-76
2022/08/28 13:31:24;;;;;;;;;7.00;7.00;;;;;;;;5101123;28;10545;-77
2022/08/28 13:34:01;;;;;;;;;8.50;7.75;;;;;;;;5101132;28;8883;-77
2022/08/28 13:36:27;;;;;;;;;7.00;7.00;;;;;;;;5101279;28;12248;-77
2022/08/28 13:38:52;;;;;;;;;7.00;7.00;;;;;;;;5106398;28;11545;-77
2022/08/28 13:41:17;;;;;;;;;6.00;6.00;;;;;;;;5121614;28;9521;-76
2022/08/28 13:43:44;;;;;;;;;6.67;6.67;;;;;;;;5121930;28;9611;-77
2022/08/28 13:46:10;;;;;;;;;6.50;6.00;;;;;;;;5120762;28;8797;-77
2022/08/28 13:48:35;;;;;;;;;7.00;7.00;;;;;;;;5119289;28;9921;-76
2022/08/28 13:51:01;;;;;;;;;6.67;6.67;;;;;;;;5121291;28;10274;-76
2022/08/28 13:53:27;;;;;;;;;8.25;7.25;;;;;;;;5121316;28;11921;-76
2022/08/28 13:55:52;;;;;;;;;6.67;6.67;;;;;;;;5121447;28;11303;-79
2022/08/28 13:58:18;;;;;;;;;6.67;6.67;;;;;;;;5121130;28;11585;-78
2022/08/28 14:00:45;;;;;;;;;8.00;8.00;;;;;;;;5121255;28;8809;-77
2022/08/28 14:05:54;;;;;;;;;5.25;5.25;;;;;;;;5120975;28;11373;-76
2022/08/28 14:08:20;;;;;;;;;9.67;8.00;;;;;;;;5114040;28;12466;-78
2022/08/28 14:10:46;;;;;;;;;8.00;6.67;;;;;;;;5107686;28;11309;-72
2022/08/28 14:13:11;;;;;;;;;6.00;6.00;;;;;;;;5111633;28;11455;-80
2022/08/28 14:15:37;;;;;;;;;6.33;6.00;;;;;;;;5120426;28;11297;-80
2022/08/28 14:18:02;;;;;;;;;6.00;6.00;;;;;;;;5120492;28;8801;-80
2022/08/28 14:20:28;;;;;;;;;7.00;6.00;;;;;;;;5121095;28;8793;-80
2022/08/28 14:22:53;;;;;;;;;7.00;7.00;;;;;;;;5119959;28;8820;-80
2022/08/28 14:25:18;;;;;;;;;6.00;6.00;;;;;;;;5120930;28;8930;-79
2022/08/28 14:27:43;;;;;;;;;7.00;7.00;;;;;;;;5122117;28;10591;-79
2022/08/28 14:30:09;;;;;;;;;7.00;7.00;;;;;;;;5119689;28;8883;-78
2022/08/28 14:32:36;;;;;;;;;7.00;7.00;;;;;;;;5100840;28;8818;-79
2022/08/28 14:35:02;;;;;;;;;7.00;5.50;;;;;;;;5099904;28;8796;-80
2022/08/28 14:37:27;;;;;;;;;7.00;7.00;;;;;;;;5099471;28;9267;-78
2022/08/28 14:39:52;;;;;;;;;5.33;5.33;;;;;;;;5098818;28;11504;-79
2022/08/28 14:42:18;;;;;;;;;7.00;7.00;;;;;;;;5099557;28;11465;-78
2022/08/28 14:44:43;;;;;;;;;7.67;6.67;;;;;;;;5099882;28;11555;-78
2022/08/28 14:47:09;;;;;;;;;9.00;8.67;;;;;;;;5081249;28;13365;-79
2022/08/28 14:49:34;;;;;;;;;6.00;6.00;;;;;;;;5099623;28;10584;-76
2022/08/28 14:52:00;;;;;;;;;6.00;6.00;;;;;;;;5099528;28;12360;-77
2022/08/28 14:54:25;;;;;;;;;7.33;6.00;;;;;;;;5099910;28;8898;-77
2022/08/28 14:56:51;;;;;;;;;5.00;5.00;;;;;;;;5099152;28;8945;-77
2022/08/28 14:59:18;;;;;;;;;4.33;4.00;;;;;;;;5079823;28;10470;-76
2022/08/28 15:01:43;;;;;;;;;5.00;5.00;;;;;;;;5096166;28;10676;-76
2022/08/28 15:04:11;;;;;;;;;3.00;3.00;;;;;;;;5098127;28;11805;-77
2022/08/28 15:06:36;;;;;;;;;4.00;3.50;;;;;;;;5099078;28;8772;-76
2022/08/28 15:09:02;;;;;;;;;3.67;3.00;;;;;;;;5099996;28;12587;-78
2022/08/28 15:11:28;;;;;;;;;2.00;2.00;;;;;;;;5100253;28;11683;-78
2022/08/28 15:13:54;;;;;;;;;3.25;0.00;;;;;;;;5099670;28;10509;-84
2022/08/28 15:16:19;;;;;;;;;0.00;0.00;;;;;;;;5100034;28;10313;-79
2022/08/28 15:18:45;;;;;;;;;0.00;0.00;;;;;;;;5099966;28;8881;-79
2022/08/28 15:21:14;;;;;;;;;0.00;0.00;;;;;;;;5099425;28;8812;-78
2022/08/28 15:23:39;;;;;;;;;0.75;0.25;;;;;;;;5099726;28;9622;-79
2022/08/28 15:26:05;;;;;;;;;1.00;1.00;;;;;;;;5099079;28;8772;-79
2022/08/28 15:28:30;;;;;;;;;0.00;0.00;;;;;;;;5080261;28;11647;-79
2022/08/28 15:30:55;;;;;;;;;0.00;0.00;;;;;;;;5086463;28;10734;-79
2022/08/28 15:33:20;;;;;;;;;1.00;1.00;;;;;;;;5107893;28;8910;-79
2022/08/28 15:35:46;;;;;;;;;1.00;1.00;;;;;;;;5099357;28;8982;-78
2022/08/28 15:38:11;;;;;;;;;1.00;1.00;;;;;;;;5098955;28;9657;-78
2022/08/28 15:43:20;;;;;;;;;1.00;1.00;;;;;;;;5099390;28;8791;-79
2022/08/28 15:45:46;;;;;;;;;0.67;0.00;;;;;;;;5099537;28;8921;-79
2022/08/28 15:48:12;;;;;;;;;1.00;1.00;;;;;;;;5098928;28;10787;-80
2022/08/28 15:50:39;;;;;;;;;1.50;1.50;;;;;;;;5100214;28;10819;-77
2022/08/28 15:53:04;;;;;;;;;2.50;1.75;;;;;;;;5099099;28;8776;-78
2022/08/28 15:55:30;;;;;;;;;1.00;1.00;;;;;;;;5099053;28;11339;-79
2022/08/28 15:57:55;;;;;;;;;1.00;1.00;;;;;;;;5099590;28;11942;-79
2022/08/28 16:00:21;;;;;;;;;2.00;2.00;;;;;;;;5099749;28;8795;-78
2022/08/28 16:02:46;;;;;;;;;2.33;2.33;;;;;;;;5082041;28;8858;-78
2022/08/28 16:05:11;;;;;;;;;1.33;1.33;;;;;;;;5084326;28;10674;-78
2022/08/28 16:07:37;;;;;;;;;1.00;1.00;;;;;;;;5108168;28;8918;-81
2022/08/28 16:10:05;;;;;;;;;1.00;1.00;;;;;;;;5101709;28;8809;-81
2022/08/28 16:12:31;;;;;;;;;2.00;2.00;;;;;;;;5105923;28;8769;-83
2022/08/28 16:14:57;;;;;;;;;1.67;1.00;;;;;;;;5112870;28;8993;-81
2022/08/28 16:17:22;;;;;;;;;2.00;1.00;;;;;;;;5112359;28;10231;-81
2022/08/28 16:19:47;;;;;;;;;1.00;1.00;;;;;;;;5108329;28;8827;-81
2022/08/28 16:22:15;;;;;;;;;3.00;2.00;;;;;;;;5110189;28;8780;-81
2022/08/28 16:24:41;;;;;;;;;2.00;1.00;;;;;;;;5105077;28;8781;-86
2022/08/28 16:27:06;;;;;;;;;1.00;1.00;;;;;;;;5105208;28;8772;-78
2022/08/28 16:29:32;;;;;;;;;0.67;0.67;;;;;;;;5102143;28;8885;-76
